sensor_id;sensor_type;location;lat;lon;timestamp;P1;durP1;ratioP1;P2;durP2;ratioP2
12072;SDS011;6098;49.004;8.372;2023-07-29T00:11:35;2.79;;;1.98;;
12072;SDS011;6098;49.004;8.372;2023-07-29T00:26:26;2.47;;;2.01;;
12072;SDS011;6098;49.004;8.372;2023-07-29T00:41:26;3.66;;;1.78;;
12072;SDS011;6098;49.004;8.372;2023-07-29T00:56:17;3.79;;;2.23;;
12072;SDS011;6098;49.004;8.372;2023-07-29T01:26:05;2.68;;;2.28;;
12072;SDS011;6098;49.004;8.372;2023-07-29T01:40:58;2.44;;;2.24;;
12072;SDS011;6098;49.004;8.372;2023-07-29T01:55:51;4.02;;;2.50;;
12072;SDS011;6098;49.004;8.372;2023-07-29T02:10:59;4.09;;;2.77;;
12072;SDS011;6098;49.004;8.372;2023-07-29T02:25:47;2.14;;;2.00;;
12072;SDS011;6098;49.004;8.372;2023-07-29T02:40:39;2.52;;;2.31;;
12072;SDS011;6098;49.004;8.372;2023-07-29T02:55:36;4.21;;;2.44;;
12072;SDS011;6098;49.004;8.372;2023-07-29T03:10:27;2.71;;;2.22;;
12072;SDS011;6098;49.004;8.372;2023-07-29T03:25:19;5.62;;;2.60;;
12072;SDS011;6098;49.004;8.372;2023-07-29T03:40:12;3.18;;;2.47;;
12072;SDS011;6098;49.004;8.372;2023-07-29T03:55:12;3.24;;;2.39;;
12072;SDS011;6098;49.004;8.372;2023-07-29T04:10:07;4.66;;;2.60;;
12072;SDS011;6098;49.004;8.372;2023-07-29T04:25:00;6.22;;;3.53;;
12072;SDS011;6098;49.004;8.372;2023-07-29T04:39:52;6.33;;;3.47;;
12072;SDS011;6098;49.004;8.372;2023-07-29T04:54:46;4.93;;;4.23;;
12072;SDS011;6098;49.004;8.372;2023-07-29T05:09:38;8.23;;;4.27;;
12072;SDS011;6098;49.004;8.372;2023-07-29T05:24:30;5.98;;;4.14;;
12072;SDS011;6098;49.004;8.372;2023-07-29T05:39:25;7.08;;;4.64;;
12072;SDS011;6098;49.004;8.372;2023-07-29T05:54:18;10.08;;;5.41;;
12072;SDS011;6098;49.004;8.372;2023-07-29T06:09:13;7.14;;;4.79;;
12072;SDS011;6098;49.004;8.372;2023-07-29T06:24:07;5.38;;;4.73;;
12072;SDS011;6098;49.004;8.372;2023-07-29T06:39:01;4.92;;;3.88;;
12072;SDS011;6098;49.004;8.372;2023-07-29T06:53:55;8.21;;;4.59;;
12072;SDS011;6098;49.004;8.372;2023-07-29T07:08:50;14.72;;;4.61;;
12072;SDS011;6098;49.004;8.372;2023-07-29T07:23:46;4.73;;;3.58;;
12072;SDS011;6098;49.004;8.372;2023-07-29T07:38:39;4.94;;;3.68;;
12072;SDS011;6098;49.004;8.372;2023-07-29T07:53:32;3.79;;;2.87;;
12072;SDS011;6098;49.004;8.372;2023-07-29T08:08:25;2.83;;;2.51;;
12072;SDS011;6098;49.004;8.372;2023-07-29T08:23:19;2.27;;;2.07;;
12072;SDS011;6098;49.004;8.372;2023-07-29T08:38:11;5.14;;;2.89;;
12072;SDS011;6098;49.004;8.372;2023-07-29T08:53:05;4.13;;;2.81;;
12072;SDS011;6098;49.004;8.372;2023-07-29T09:07:57;2.94;;;2.15;;
12072;SDS011;6098;49.004;8.372;2023-07-29T09:22:50;3.42;;;2.60;;
12072;SDS011;6098;49.004;8.372;2023-07-29T09:37:45;3.78;;;2.15;;
12072;SDS011;6098;49.004;8.372;2023-07-29T09:52:37;2.55;;;1.89;;
12072;SDS011;6098;49.004;8.372;2023-07-29T10:07:30;1.81;;;1.70;;
12072;SDS011;6098;49.004;8.372;2023-07-29T10:22:24;2.04;;;1.70;;
12072;SDS011;6098;49.004;8.372;2023-07-29T10:37:17;1.76;;;1.20;;
12072;SDS011;6098;49.004;8.372;2023-07-29T10:52:14;2.09;;;1.39;;
12072;SDS011;6098;49.004;8.372;2023-07-29T11:22:03;1.90;;;1.77;;
12072;SDS011;6098;49.004;8.372;2023-07-29T11:36:56;1.46;;;1.36;;
12072;SDS011;6098;49.004;8.372;2023-07-29T11:51:49;1.70;;;1.59;;
12072;SDS011;6098;49.004;8.372;2023-07-29T12:06:43;2.01;;;1.62;;
12072;SDS011;6098;49.004;8.372;2023-07-29T12:21:36;1.56;;;1.46;;
12072;SDS011;6098;49.004;8.372;2023-07-29T12:36:42;2.06;;;1.89;;
12072;SDS011;6098;49.004;8.372;2023-07-29T12:51:44;2.60;;;1.69;;
12072;SDS011;6098;49.004;8.372;2023-07-29T13:06:35;1.81;;;1.71;;
12072;SDS011;6098;49.004;8.372;2023-07-29T13:21:29;1.91;;;1.50;;
12072;SDS011;6098;49.004;8.372;2023-07-29T13:36:24;2.73;;;1.54;;
12072;SDS011;6098;49.004;8.372;2023-07-29T13:51:16;1.88;;;1.71;;
12072;SDS011;6098;49.004;8.372;2023-07-29T14:06:11;1.92;;;1.49;;
12072;SDS011;6098;49.004;8.372;2023-07-29T14:21:05;2.80;;;1.67;;
12072;SDS011;6098;49.004;8.372;2023-07-29T14:36:03;2.34;;;2.12;;
12072;SDS011;6098;49.004;8.372;2023-07-29T14:50:54;3.71;;;2.03;;
12072;SDS011;6098;49.004;8.372;2023-07-29T15:05:49;2.72;;;1.82;;
12072;SDS011;6098;49.004;8.372;2023-07-29T15:20:44;1.86;;;1.56;;
12072;SDS011;6098;49.004;8.372;2023-07-29T15:35:37;2.56;;;1.93;;
12072;SDS011;6098;49.004;8.372;2023-07-29T15:50:33;2.98;;;2.66;;
12072;SDS011;6098;49.004;8.372;2023-07-29T16:05:23;2.16;;;1.79;;
12072;SDS011;6098;49.004;8.372;2023-07-29T16:36:35;3.00;;;2.09;;
12072;SDS011;6098;49.004;8.372;2023-07-29T16:51:28;2.40;;;2.20;;
12072;SDS011;6098;49.004;8.372;2023-07-29T17:06:22;2.38;;;2.18;;
12072;SDS011;6098;49.004;8.372;2023-07-29T17:21:13;2.49;;;2.03;;
12072;SDS011;6098;49.004;8.372;2023-07-29T17:36:05;3.37;;;2.31;;
12072;SDS011;6098;49.004;8.372;2023-07-29T17:50:57;3.04;;;2.48;;
12072;SDS011;6098;49.004;8.372;2023-07-29T18:05:48;3.44;;;2.60;;
12072;SDS011;6098;49.004;8.372;2023-07-29T18:20:41;2.66;;;2.32;;
12072;SDS011;6098;49.004;8.372;2023-07-29T18:35:34;9.11;;;7.37;;
12072;SDS011;6098;49.004;8.372;2023-07-29T18:50:26;2.89;;;2.20;;
12072;SDS011;6098;49.004;8.372;2023-07-29T19:05:19;2.78;;;2.40;;
12072;SDS011;6098;49.004;8.372;2023-07-29T19:20:12;2.21;;;1.96;;
12072;SDS011;6098;49.004;8.372;2023-07-29T19:35:07;3.61;;;2.26;;
12072;SDS011;6098;49.004;8.372;2023-07-29T19:49:58;3.85;;;2.67;;
12072;SDS011;6098;49.004;8.372;2023-07-29T20:19:43;3.36;;;2.89;;
12072;SDS011;6098;49.004;8.372;2023-07-29T20:34:36;3.05;;;2.70;;
12072;SDS011;6098;49.004;8.372;2023-07-29T20:49:29;3.59;;;3.29;;
12072;SDS011;6098;49.004;8.372;2023-07-29T21:04:23;3.42;;;3.12;;
12072;SDS011;6098;49.004;8.372;2023-07-29T21:19:16;4.80;;;2.89;;
12072;SDS011;6098;49.004;8.372;2023-07-29T21:34:08;6.34;;;3.70;;
12072;SDS011;6098;49.004;8.372;2023-07-29T21:49:05;6.09;;;4.16;;
12072;SDS011;6098;49.004;8.372;2023-07-29T22:03:58;6.96;;;5.20;;
12072;SDS011;6098;49.004;8.372;2023-07-29T22:18:51;8.21;;;5.07;;
12072;SDS011;6098;49.004;8.372;2023-07-29T22:33:43;4.72;;;3.74;;
12072;SDS011;6098;49.004;8.372;2023-07-29T22:48:39;6.32;;;4.65;;
12072;SDS011;6098;49.004;8.372;2023-07-29T23:03:32;4.29;;;3.31;;
12072;SDS011;6098;49.004;8.372;2023-07-29T23:18:23;2.18;;;1.39;;
12072;SDS011;6098;49.004;8.372;2023-07-29T23:33:15;1.78;;;0.92;;
12072;SDS011;6098;49.004;8.372;2023-07-29T23:48:06;1.14;;;0.80;;
